Barbican, United Kingdom
Current Conditions -  °F | °C
As of 5:50 PM on Tuesday 21 Oct 2014 (Local Time) from EGLC Reporting Station
Broken Clouds Broken Clouds  
Wind Chill: 52°   Ceiling: 2800
Heat Index: 52°   Visibility: 6mi
Dew Point: 41°   Wind: 20mph
Humidity: 67%   Direction: 290°WNW
Pressure: 29.88"   Gusts: NA
Location:  51.52°N, 0.09°W
Report Text: EGLC 211650Z 29017KT 260V330 9999 FEW010 BKN028CB 11/05 Q1012
Loading
Personal Weather Stations






























Interactive Weather Map
Tropical Storm Tracking
New forecast layout! Learn more

10-Day Weather Forecast

Advertisements
Track Severe Weather on mobile